createdAt,value
2023-05-23T00:06:01.137Z,8.73
2023-05-23T00:16:44.039Z,8.95
2023-05-23T00:27:24.714Z,7.97
2023-05-23T00:38:07.797Z,8.13
2023-05-23T00:48:48.359Z,8.37
2023-05-23T00:59:30.102Z,6.97
2023-05-23T01:10:11.493Z,8.83
2023-05-23T01:21:06.654Z,8.77
2023-05-23T01:31:52.508Z,9.98
2023-05-23T01:42:33.349Z,8.80
2023-05-23T01:53:17.664Z,10.07
2023-05-23T02:03:58.320Z,9.20
2023-05-23T02:14:39.642Z,9.73
2023-05-23T02:25:20.748Z,9.57
2023-05-23T02:36:02.247Z,9.43
2023-05-23T02:46:42.782Z,10.27
2023-05-23T02:57:23.543Z,11.20
2023-05-23T03:08:05.317Z,7.63
2023-05-23T03:18:45.545Z,8.38
2023-05-23T03:29:26.231Z,9.40
2023-05-23T03:40:07.439Z,11.00
2023-05-23T03:50:48.255Z,9.30
2023-05-23T04:01:28.972Z,9.52
2023-05-23T04:12:10.227Z,10.50
2023-05-23T04:22:51.206Z,11.07
2023-05-23T04:33:31.729Z,12.45
2023-05-23T04:44:14.880Z,12.83
2023-05-23T04:54:55.964Z,15.43
2023-05-23T05:05:37.351Z,13.90
2023-05-23T05:16:18.150Z,13.90
2023-05-23T05:26:58.752Z,14.37
2023-05-23T05:37:39.195Z,13.05
2023-05-23T05:48:19.923Z,12.10
2023-05-23T05:59:00.472Z,13.13
2023-05-23T06:09:40.774Z,13.47
2023-05-23T06:20:21.347Z,16.25
2023-05-23T06:31:01.749Z,13.77
2023-05-23T06:41:43.091Z,14.10
2023-05-23T06:52:23.374Z,12.60
2023-05-23T07:02:45.709Z,10.93
2023-05-23T07:13:05.780Z,13.87
2023-05-23T07:23:26.089Z,14.55
2023-05-23T07:33:46.504Z,16.27
2023-05-23T07:44:09.569Z,14.23
2023-05-23T07:54:50.002Z,14.33
2023-05-23T08:05:30.307Z,14.73
2023-05-23T08:16:11.135Z,13.37
2023-05-23T08:26:35.038Z,14.70
2023-05-23T08:36:55.089Z,12.75
2023-05-23T08:47:17.677Z,14.50
2023-05-23T08:57:39.311Z,14.63
2023-05-23T09:07:59.476Z,13.25
2023-05-23T09:18:19.655Z,10.93
2023-05-23T09:28:42.499Z,8.07
2023-05-23T09:39:08.010Z,13.57
2023-05-23T09:49:28.376Z,14.38
2023-05-23T09:59:58.911Z,10.43
2023-05-23T10:10:19.869Z,11.50
2023-05-23T10:20:47.536Z,10.85
2023-05-23T10:31:08.126Z,8.03
2023-05-23T10:41:41.522Z,9.77
2023-05-23T10:52:03.632Z,9.35
2023-05-23T11:02:29.064Z,9.77
2023-05-23T11:12:49.379Z,9.47
2023-05-23T11:23:09.585Z,10.67
2023-05-23T11:33:30.367Z,10.73
2023-05-23T11:43:52.261Z,12.63
2023-05-23T11:54:12.537Z,9.00
2023-05-23T12:04:53.167Z,10.40
2023-05-23T12:15:34.449Z,9.33
2023-05-23T12:25:56.718Z,8.97
2023-05-23T12:36:23.087Z,12.48
2023-05-23T12:46:43.575Z,11.05
2023-05-23T12:57:24.264Z,9.43
2023-05-23T13:08:05.018Z,7.47
2023-05-23T13:18:45.500Z,8.15
2023-05-23T13:29:25.896Z,10.03
2023-05-23T13:40:07.753Z,10.30
2023-05-23T13:50:48.200Z,8.77
2023-05-23T14:01:29.448Z,6.87
2023-05-23T14:12:10.213Z,9.43
2023-05-23T14:22:51.500Z,7.63
2023-05-23T14:33:32.308Z,8.43
2023-05-23T14:44:12.854Z,13.20
2023-05-23T14:54:53.821Z,8.93
2023-05-23T15:05:34.238Z,8.52
2023-05-23T15:16:16.057Z,8.07
2023-05-23T15:27:04.906Z,7.67
2023-05-23T15:37:53.381Z,7.47
2023-05-23T15:48:34.145Z,7.97
2023-05-23T15:59:14.484Z,9.03
2023-05-23T16:09:55.105Z,11.10
2023-05-23T16:20:35.536Z,10.07
2023-05-23T16:31:16.789Z,8.30
2023-05-23T16:42:00.322Z,13.50
2023-05-23T16:52:41.571Z,8.73
2023-05-23T17:03:22.161Z,7.07
2023-05-23T17:14:02.579Z,9.20
2023-05-23T17:24:43.041Z,8.02
2023-05-23T17:35:23.422Z,7.03
2023-05-23T17:46:04.163Z,8.93
2023-05-23T17:56:45.217Z,7.90
2023-05-23T18:07:25.830Z,10.02
2023-05-23T18:18:06.689Z,5.13
2023-05-23T18:28:46.951Z,6.20
2023-05-23T18:39:27.144Z,10.52
2023-05-23T18:50:08.029Z,7.50
2023-05-23T19:00:49.345Z,6.60
2023-05-23T19:11:29.855Z,8.77
2023-05-23T19:22:10.853Z,7.20
2023-05-23T19:32:51.370Z,11.03
2023-05-23T19:43:32.086Z,11.23
2023-05-23T19:54:13.555Z,10.43
2023-05-23T20:04:54.238Z,7.73
2023-05-23T20:15:39.802Z,9.13
2023-05-23T20:26:22.299Z,9.35
2023-05-23T20:37:03.562Z,7.20
2023-05-23T20:47:44.211Z,9.30
2023-05-23T20:58:24.963Z,9.65
2023-05-23T21:09:06.046Z,7.20
2023-05-23T21:19:46.727Z,7.53
2023-05-23T21:30:27.339Z,7.90
2023-05-23T21:41:07.886Z,8.43
2023-05-23T21:51:48.084Z,7.50
2023-05-23T22:02:28.683Z,8.77
2023-05-23T22:13:09.642Z,6.25
2023-05-23T22:23:50.104Z,6.30
2023-05-23T22:34:30.961Z,9.97
2023-05-23T22:45:11.727Z,10.77
2023-05-23T22:55:52.264Z,7.90
2023-05-23T23:06:33.920Z,11.23
2023-05-23T23:17:14.771Z,6.40
2023-05-23T23:27:55.828Z,5.82
2023-05-23T23:38:37.616Z,9.10
2023-05-23T23:49:19.419Z,7.20
2023-05-23T23:59:59.872Z,7.65
